Time;durP1;ratioP1;P1;durP2;ratioP2;P2;SDS_P1;SDS_P2;PMS_P1;PMS_P2;Temp;Humidity;BMP_temperature;BMP_pressure;BME280_temperature;BME280_humidity;BME280_pressure;Samples;Min_cycle;Max_cycle;Signal;HPM_P1;HPM_P2
2022/09/06 00:01:10;;;;;;;10.80;4.38;;;16.10;99.90;;;;;;5032590;28;20201;-53
2022/09/06 00:03:35;;;;;;;6.40;3.03;;;16.00;99.90;;;;;;5031561;28;20663;-53
2022/09/06 00:06:06;;;;;;;4.93;2.83;;;16.00;99.90;;;;;;5033020;28;20174;-52
2022/09/06 00:08:32;;;;;;;6.57;3.20;;;16.00;99.90;;;;;;5032925;28;20177;-53
2022/09/06 00:10:58;;;;;;;7.45;2.80;;;16.00;99.90;;;;;;5032650;28;20702;-53
2022/09/06 00:13:23;;;;;;;6.32;2.75;;;16.00;99.90;;;;;;5032883;28;20174;-53
2022/09/06 00:15:49;;;;;;;8.43;3.13;;;16.00;99.90;;;;;;5032798;28;20541;-53
2022/09/06 00:18:15;;;;;;;7.22;3.00;;;16.00;99.90;;;;;;5032174;28;20173;-53
2022/09/06 00:20:40;;;;;;;7.50;2.88;;;16.00;99.90;;;;;;5032587;28;20679;-53
2022/09/06 00:23:07;;;;;;;8.18;2.92;;;15.90;99.90;;;;;;5032622;28;20170;-53
2022/09/06 00:25:33;;;;;;;5.63;3.15;;;15.90;99.90;;;;;;5032823;28;20174;-53
2022/09/06 00:28:01;;;;;;;11.43;2.90;;;15.90;99.90;;;;;;5032788;28;20216;-53
2022/09/06 00:30:28;;;;;;;7.32;3.05;;;15.80;99.90;;;;;;5032477;28;20205;-52
2022/09/06 00:32:55;;;;;;;11.95;3.95;;;15.80;99.90;;;;;;5017201;28;20169;-52
2022/09/06 00:35:23;;;;;;;7.68;2.92;;;15.80;99.90;;;;;;5032335;28;20570;-52
2022/09/06 00:37:50;;;;;;;9.95;3.30;;;15.80;99.90;;;;;;5032409;28;20212;-52
2022/09/06 00:40:16;;;;;;;8.40;2.80;;;15.80;99.90;;;;;;5032016;28;20229;-52
2022/09/06 00:42:41;;;;;;;11.38;4.05;;;15.80;99.90;;;;;;5031164;28;20716;-52
2022/09/06 00:45:09;;;;;;;8.73;3.15;;;15.80;99.90;;;;;;5032006;28;20248;-52
2022/09/06 00:47:37;;;;;;;9.95;3.20;;;15.80;99.90;;;;;;5032217;28;20182;-53
2022/09/06 00:50:04;;;;;;;8.93;3.40;;;15.80;99.90;;;;;;5032003;28;20201;-53
2022/09/06 00:52:31;;;;;;;8.60;3.40;;;15.80;99.90;;;;;;5031762;28;20178;-53
2022/09/06 00:54:57;;;;;;;8.50;3.35;;;15.80;99.90;;;;;;5031902;28;20217;-53
2022/09/06 00:57:25;;;;;;;9.90;3.60;;;15.80;99.90;;;;;;5032049;28;20581;-53
2022/09/06 00:59:53;;;;;;;8.27;2.97;;;15.70;99.90;;;;;;5031847;28;20210;-53
2022/09/06 01:02:19;;;;;;;10.85;3.42;;;15.70;99.90;;;;;;5031972;28;20166;-53
2022/09/06 01:04:47;;;;;;;11.32;3.25;;;15.70;99.90;;;;;;5031671;28;20169;-53
2022/09/06 01:07:39;;;;;;;6.28;3.25;;;15.70;99.90;;;;;;5031858;28;20178;-53
2022/09/06 01:10:24;;;;;;;7.63;3.40;;;15.70;99.90;;;;;;5031574;28;20188;-52
2022/09/06 01:12:58;;;;;;;10.73;3.47;;;15.70;99.90;;;;;;5031713;28;20166;-53
2022/09/06 01:15:32;;;;;;;8.60;3.28;;;15.70;99.90;;;;;;5031229;28;20748;-52
2022/09/06 01:18:21;;;;;;;13.30;3.85;;;15.70;99.90;;;;;;5031646;28;20683;-52
2022/09/06 01:21:13;;;;;;;6.72;3.38;;;15.70;99.90;;;;;;5031349;28;20185;-52
2022/09/06 01:24:10;;;;;;;12.70;3.67;;;15.60;99.90;;;;;;5031445;28;20182;-52
2022/09/06 01:26:51;;;;;;;9.15;3.70;;;15.60;99.90;;;;;;5031248;28;20189;-52
2022/09/06 01:29:46;;;;;;;10.93;3.65;;;15.60;99.90;;;;;;5031395;28;20663;-52
2022/09/06 01:32:28;;;;;;;8.52;4.43;;;15.60;99.90;;;;;;5025844;28;20194;-52
2022/09/06 01:35:18;;;;;;;6.35;3.35;;;15.50;99.90;;;;;;5031291;28;20209;-52
2022/09/06 01:37:44;;;;;;;7.82;3.38;;;15.50;99.90;;;;;;5030517;28;20182;-53
2022/09/06 01:40:10;;;;;;;9.40;3.25;;;15.40;99.90;;;;;;5030739;28;20588;-53
2022/09/06 01:42:37;;;;;;;15.05;3.83;;;15.40;99.90;;;;;;5031353;28;20232;-53
2022/09/06 01:45:09;;;;;;;13.05;3.63;;;15.30;99.90;;;;;;5031194;28;20180;-53
2022/09/06 01:48:06;;;;;;;8.05;3.58;;;15.30;99.90;;;;;;5030789;28;20174;-53
2022/09/06 01:50:47;;;;;;;11.35;3.75;;;15.20;99.90;;;;;;5030745;28;20197;-53
2022/09/06 01:53:21;;;;;;;7.45;3.53;;;15.20;99.90;;;;;;5031093;28;20177;-53
2022/09/06 01:56:13;;;;;;;15.43;5.60;;;15.20;99.90;;;;;;5030962;28;20220;-53
2022/09/06 01:58:41;;;;;;;13.57;4.05;;;15.20;99.90;;;;;;5011232;28;20177;-53
2022/09/06 02:01:13;;;;;;;17.02;4.07;;;15.20;99.90;;;;;;5021092;28;20178;-53
2022/09/06 02:03:53;;;;;;;8.90;4.38;;;15.10;99.90;;;;;;5030921;28;20169;-53
2022/09/06 02:06:25;;;;;;;15.38;4.10;;;15.20;99.90;;;;;;5030695;28;20169;-53
2022/09/06 02:08:59;;;;;;;16.45;3.92;;;15.10;99.90;;;;;;5030930;28;20189;-53
2022/09/06 02:11:28;;;;;;;8.93;3.88;;;15.10;99.90;;;;;;5030302;28;20177;-53
2022/09/06 02:13:59;;;;;;;11.50;4.03;;;15.10;99.90;;;;;;5030355;28;20185;-52
2022/09/06 02:16:28;;;;;;;11.43;4.38;;;15.00;99.90;;;;;;5030151;28;20228;-53
2022/09/06 02:19:02;;;;;;;12.15;4.93;;;15.10;99.90;;;;;;5030824;28;20196;-53
2022/09/06 02:21:33;;;;;;;7.72;4.25;;;15.10;99.90;;;;;;5030523;28;20197;-53
2022/09/06 02:24:04;;;;;;;18.70;4.55;;;15.10;99.90;;;;;;5030545;28;20173;-53
2022/09/06 02:26:34;;;;;;;12.43;4.18;;;15.10;99.90;;;;;;5032538;28;20185;-53
2022/09/06 02:29:00;;;;;;;11.68;4.35;;;15.10;99.90;;;;;;5034533;28;20256;-53
2022/09/06 02:31:32;;;;;;;11.75;4.53;;;15.10;99.90;;;;;;5034280;28;20654;-52
2022/09/06 02:33:59;;;;;;;16.42;5.13;;;15.10;99.90;;;;;;5034687;28;20169;-53
2022/09/06 02:36:25;;;;;;;11.13;4.60;;;15.10;99.90;;;;;;5034702;28;20585;-53
2022/09/06 02:38:52;;;;;;;7.95;4.00;;;15.10;99.90;;;;;;5034035;28;20234;-53
2022/09/06 02:41:21;;;;;;;12.88;4.80;;;15.10;99.90;;;;;;5034288;28;20644;-53
2022/09/06 02:43:48;;;;;;;11.07;4.43;;;15.00;99.90;;;;;;5034452;28;20643;-53
2022/09/06 02:46:13;;;;;;;15.13;4.85;;;15.00;99.90;;;;;;5034598;28;20203;-52
2022/09/06 02:48:39;;;;;;;12.98;5.15;;;15.00;99.90;;;;;;5034402;28;20240;-53
2022/09/06 02:51:06;;;;;;;15.32;4.70;;;15.00;99.90;;;;;;5034194;28;20272;-53
2022/09/06 02:53:32;;;;;;;10.00;5.00;;;15.00;99.90;;;;;;5034642;28;20180;-52
2022/09/06 02:55:58;;;;;;;10.82;4.95;;;15.00;99.90;;;;;;5034370;28;20210;-53
2022/09/06 02:58:24;;;;;;;11.13;5.95;;;15.10;99.90;;;;;;5034414;28;20185;-52
2022/09/06 03:00:51;;;;;;;15.02;5.03;;;15.10;99.90;;;;;;5032472;28;20186;-52
2022/09/06 03:03:20;;;;;;;13.30;4.85;;;15.10;99.90;;;;;;5034144;28;20244;-52
2022/09/06 03:05:48;;;;;;;16.08;4.68;;;15.10;99.90;;;;;;5034027;28;20174;-52
2022/09/06 03:08:15;;;;;;;9.30;4.45;;;15.00;99.90;;;;;;5034028;28;20225;-52
2022/09/06 03:10:40;;;;;;;16.05;5.30;;;15.00;99.90;;;;;;5033784;28;20185;-52
2022/09/06 03:13:06;;;;;;;12.15;4.95;;;15.00;99.90;;;;;;5034150;28;20174;-52
2022/09/06 03:15:32;;;;;;;16.10;5.38;;;15.00;99.90;;;;;;5034084;28;20213;-52
2022/09/06 03:17:58;;;;;;;18.13;5.43;;;14.90;99.90;;;;;;5033897;28;20205;-53
2022/09/06 03:20:24;;;;;;;11.57;4.63;;;14.90;99.90;;;;;;5033543;28;20241;-53
2022/09/06 03:22:50;;;;;;;14.68;4.95;;;14.80;99.90;;;;;;5033323;28;20177;-53
2022/09/06 03:25:16;;;;;;;15.85;5.05;;;14.80;99.90;;;;;;5032732;28;20204;-53
2022/09/06 03:27:42;;;;;;;13.95;5.22;;;14.90;99.90;;;;;;5033739;28;20636;-53
2022/09/06 03:30:09;;;;;;;16.23;5.50;;;14.80;99.90;;;;;;5033187;28;20666;-53
2022/09/06 03:32:35;;;;;;;23.80;5.22;;;14.80;99.90;;;;;;5033737;28;20208;-53
2022/09/06 03:35:01;;;;;;;14.65;4.82;;;14.70;99.90;;;;;;5033587;28;20248;-53
2022/09/06 03:37:27;;;;;;;15.90;5.53;;;14.70;99.90;;;;;;5033017;28;20263;-53
2022/09/06 03:39:53;;;;;;;15.35;5.13;;;14.70;99.90;;;;;;5032960;28;20240;-53
2022/09/06 03:42:18;;;;;;;16.00;4.80;;;14.70;99.90;;;;;;5033686;28;20289;-53
2022/09/06 03:44:44;;;;;;;14.52;5.47;;;14.70;99.90;;;;;;5033480;28;20176;-53
2022/09/06 03:47:10;;;;;;;17.90;4.85;;;14.90;99.90;;;;;;5033324;28;20201;-53
2022/09/06 03:49:35;;;;;;;12.65;4.75;;;14.70;99.90;;;;;;5033342;28;20170;-53
2022/09/06 03:52:01;;;;;;;12.25;4.55;;;14.60;99.90;;;;;;5033023;28;20181;-53
2022/09/06 03:54:27;;;;;;;12.82;4.70;;;14.60;99.90;;;;;;5033088;28;20202;-53
2022/09/06 03:56:54;;;;;;;13.43;4.80;;;14.60;99.90;;;;;;5032716;28;20177;-53
2022/09/06 03:59:20;;;;;;;10.00;4.90;;;14.60;99.90;;;;;;5033127;28;20174;-53
2022/09/06 04:01:45;;;;;;;12.88;5.53;;;14.50;99.90;;;;;;5032784;28;20273;-53
2022/09/06 04:04:11;;;;;;;15.98;4.93;;;14.50;99.90;;;;;;5033407;28;20178;-53
2022/09/06 04:06:37;;;;;;;14.07;5.38;;;14.50;99.90;;;;;;5033212;28;20571;-53
2022/09/06 04:09:03;;;;;;;10.15;5.15;;;14.60;99.90;;;;;;5033124;28;20710;-53
2022/09/06 04:11:28;;;;;;;16.08;5.70;;;14.50;99.90;;;;;;5032692;28;20651;-54
2022/09/06 04:13:54;;;;;;;17.70;5.88;;;14.50;99.90;;;;;;5032872;28;20178;-54
2022/09/06 04:16:20;;;;;;;17.30;5.82;;;14.60;99.90;;;;;;5031575;28;20248;-53
2022/09/06 04:18:45;;;;;;;15.50;5.70;;;14.60;99.90;;;;;;5032530;28;20313;-53
2022/09/06 04:21:11;;;;;;;15.25;5.63;;;14.70;99.90;;;;;;5032591;28;20185;-53
2022/09/06 04:23:36;;;;;;;23.75;5.75;;;14.70;99.90;;;;;;5032769;28;20245;-52
2022/09/06 04:26:03;;;;;;;13.48;5.50;;;14.80;99.90;;;;;;5032574;28;20170;-53
2022/09/06 04:28:29;;;;;;;15.48;6.20;;;14.80;99.90;;;;;;5032645;28;20188;-52
2022/09/06 04:31:00;;;;;;;16.85;5.75;;;14.80;99.90;;;;;;5032221;28;20277;-52
2022/09/06 04:33:26;;;;;;;14.32;6.22;;;14.80;99.90;;;;;;5031279;28;20236;-52
2022/09/06 04:35:55;;;;;;;11.65;5.80;;;14.80;99.90;;;;;;5032464;28;20205;-52
2022/09/06 04:38:21;;;;;;;13.68;6.15;;;14.80;99.90;;;;;;5032063;28;20176;-53
2022/09/06 04:40:47;;;;;;;16.45;6.15;;;14.70;99.90;;;;;;5031960;28;20703;-53
2022/09/06 04:43:13;;;;;;;15.88;6.60;;;14.70;99.90;;;;;;5032391;28;20178;-52
2022/09/06 04:45:39;;;;;;;13.77;6.40;;;14.70;99.90;;;;;;5032276;28;20201;-53
2022/09/06 04:48:05;;;;;;;19.80;6.45;;;14.70;99.90;;;;;;5031888;28;20174;-53
2022/09/06 04:50:30;;;;;;;17.48;6.70;;;14.70;99.90;;;;;;5031518;28;20331;-53
2022/09/06 04:52:56;;;;;;;16.30;6.25;;;14.70;99.90;;;;;;5032352;28;20664;-52
2022/09/06 04:55:22;;;;;;;14.60;6.00;;;14.80;99.90;;;;;;5032096;28;20201;-52
2022/09/06 04:57:47;;;;;;;21.45;6.72;;;14.80;99.90;;;;;;5032142;28;20197;-52
2022/09/06 05:00:13;;;;;;;14.82;6.57;;;14.80;99.90;;;;;;5031782;28;20319;-52
2022/09/06 05:02:39;;;;;;;17.67;5.97;;;14.80;99.90;;;;;;5031970;28;20582;-53
2022/09/06 05:05:05;;;;;;;18.48;5.95;;;14.80;99.90;;;;;;5031658;28;20221;-52
2022/09/06 05:07:30;;;;;;;19.02;6.47;;;14.90;99.90;;;;;;5031994;28;20174;-53
2022/09/06 05:09:56;;;;;;;19.75;7.43;;;14.90;99.90;;;;;;5031613;28;20501;-53
2022/09/06 05:12:21;;;;;;;16.55;7.18;;;14.90;99.90;;;;;;5032070;28;20190;-53
2022/09/06 05:14:47;;;;;;;11.27;6.50;;;15.00;99.90;;;;;;5031587;28;20206;-53
2022/09/06 05:17:13;;;;;;;17.23;6.95;;;15.10;99.90;;;;;;5031659;28;20194;-52
2022/09/06 05:19:39;;;;;;;19.35;6.93;;;15.10;99.90;;;;;;5031561;28;20236;-53
2022/09/06 05:22:05;;;;;;;14.57;6.75;;;15.10;99.90;;;;;;5031494;28;20265;-52
2022/09/06 05:24:31;;;;;;;15.85;6.78;;;15.10;99.90;;;;;;5030354;28;20252;-52
2022/09/06 05:26:57;;;;;;;17.23;6.68;;;15.10;99.90;;;;;;5031609;28;20638;-52
2022/09/06 05:29:23;;;;;;;18.58;7.45;;;15.10;99.90;;;;;;5030752;28;20170;-52
2022/09/06 05:31:48;;;;;;;18.52;7.72;;;15.20;99.90;;;;;;5031116;28;20521;-56
2022/09/06 05:34:14;;;;;;;18.35;8.07;;;15.20;99.90;;;;;;5031311;28;20279;-52
2022/09/06 05:36:40;;;;;;;20.48;8.35;;;15.20;99.90;;;;;;5031448;28;20232;-52
2022/09/06 05:39:06;;;;;;;23.45;7.80;;;15.20;99.90;;;;;;5030833;28;20620;-53
2022/09/06 05:41:32;;;;;;;16.23;8.85;;;15.30;99.90;;;;;;5031257;28;20260;-53
2022/09/06 05:43:58;;;;;;;20.10;8.90;;;15.30;99.90;;;;;;5031165;28;20659;-52
2022/09/06 05:46:25;;;;;;;16.65;8.70;;;15.30;99.90;;;;;;5031112;28;20269;-52
2022/09/06 05:48:56;;;;;;;18.27;9.10;;;15.30;99.90;;;;;;5030792;28;20208;-53
2022/09/06 05:51:23;;;;;;;20.13;8.55;;;15.30;99.90;;;;;;5031155;28;20186;-52
2022/09/06 05:53:48;;;;;;;22.33;8.38;;;15.40;99.90;;;;;;5031069;28;20549;-52
2022/09/06 05:56:15;;;;;;;18.38;8.00;;;15.40;99.90;;;;;;5030550;28;20288;-52
2022/09/06 05:58:41;;;;;;;17.77;7.82;;;15.40;99.90;;;;;;5030673;28;20552;-52
2022/09/06 06:01:16;;;;;;;11.75;7.28;;;15.40;99.90;;;;;;5030581;28;20178;-53
2022/09/06 06:03:42;;;;;;;16.05;7.47;;;15.40;99.90;;;;;;5030771;28;20700;-53
2022/09/06 06:06:08;;;;;;;24.00;7.85;;;15.50;99.90;;;;;;5029628;28;20177;-53
2022/09/06 06:08:35;;;;;;;22.25;7.70;;;15.50;99.90;;;;;;5030572;28;20251;-54
2022/09/06 06:11:01;;;;;;;14.45;7.03;;;15.50;99.90;;;;;;5030829;28;20189;-53
2022/09/06 06:13:28;;;;;;;14.80;7.80;;;15.60;99.90;;;;;;5030765;28;20181;-53
2022/09/06 06:15:55;;;;;;;15.00;7.55;;;15.60;99.90;;;;;;5030516;28;20276;-53
2022/09/06 06:18:21;;;;;;;18.00;7.75;;;15.60;99.90;;;;;;5030439;28;20243;-52
2022/09/06 06:20:46;;;;;;;19.80;8.35;;;15.70;99.90;;;;;;5030870;28;20214;-52
2022/09/06 06:23:14;;;;;;;14.38;8.10;;;15.70;99.90;;;;;;5030736;28;20162;-53
2022/09/06 06:25:40;;;;;;;25.92;8.05;;;15.80;99.90;;;;;;5030677;28;20177;-53
2022/09/06 06:28:05;;;;;;;19.35;7.35;;;15.80;99.90;;;;;;5030602;28;20265;-52
2022/09/06 06:30:31;;;;;;;13.43;7.18;;;15.70;99.90;;;;;;5030664;28;20205;-53
2022/09/06 06:32:57;;;;;;;21.58;7.85;;;15.70;99.90;;;;;;5030564;28;20188;-53
2022/09/06 06:35:24;;;;;;;23.85;7.47;;;15.80;99.90;;;;;;5030560;28;20210;-56
2022/09/06 06:37:50;;;;;;;17.77;7.72;;;15.80;99.90;;;;;;5027438;28;20628;-54
2022/09/06 06:40:15;;;;;;;14.93;6.97;;;15.80;99.90;;;;;;5030367;28;20217;-54
2022/09/06 06:42:41;;;;;;;23.27;7.32;;;15.80;99.90;;;;;;5030657;28;20158;-54
2022/09/06 06:45:07;;;;;;;17.77;7.75;;;15.80;99.90;;;;;;5029877;28;20600;-54
2022/09/06 06:47:33;;;;;;;14.90;7.45;;;15.80;99.90;;;;;;5029330;28;20536;-54
2022/09/06 06:49:58;;;;;;;13.20;7.03;;;15.90;99.90;;;;;;5030135;28;20177;-54
2022/09/06 06:52:24;;;;;;;13.40;7.03;;;15.90;99.90;;;;;;5030423;28;20196;-54
2022/09/06 06:54:50;;;;;;;17.83;7.53;;;15.90;99.90;;;;;;5030206;28;20268;-57
2022/09/06 06:57:15;;;;;;;17.27;7.15;;;16.00;99.90;;;;;;5030089;28;20174;-52
2022/09/06 06:59:41;;;;;;;13.15;6.35;;;16.10;99.90;;;;;;5027937;28;20263;-52
2022/09/06 07:02:07;;;;;;;23.50;6.97;;;16.10;99.90;;;;;;5019197;28;20329;-52
2022/09/06 07:04:32;;;;;;;24.35;6.80;;;16.20;99.90;;;;;;5019681;28;20185;-52
2022/09/06 07:06:58;;;;;;;17.25;6.57;;;16.20;99.90;;;;;;5021029;28;20201;-51
2022/09/06 07:09:24;;;;;;;18.08;6.63;;;16.30;99.90;;;;;;5018852;28;20224;-51
2022/09/06 07:11:50;;;;;;;14.32;6.70;;;16.30;99.90;;;;;;5024564;28;20171;-51
2022/09/06 07:14:17;;;;;;;17.25;6.43;;;16.40;99.90;;;;;;5025423;28;20174;-51
2022/09/06 07:16:43;;;;;;;18.15;6.22;;;16.40;99.90;;;;;;5029290;28;20185;-52
2022/09/06 07:19:09;;;;;;;14.00;5.60;;;16.40;99.90;;;;;;5022558;28;20256;-51
2022/09/06 07:21:35;;;;;;;20.17;5.32;;;16.40;99.90;;;;;;5024054;28;20222;-52
2022/09/06 07:24:01;;;;;;;21.20;5.07;;;16.30;99.90;;;;;;5025829;28;20182;-52
2022/09/06 07:26:29;;;;;;;18.48;5.20;;;16.40;99.90;;;;;;5022968;28;20178;-51
2022/09/06 07:28:59;;;;;;;16.67;4.93;;;16.50;99.90;;;;;;5027949;28;20169;-51
2022/09/06 07:31:26;;;;;;;15.93;4.63;;;16.50;99.90;;;;;;5027567;28;20261;-55
2022/09/06 07:33:52;;;;;;;20.83;4.45;;;16.50;99.90;;;;;;5022436;28;20637;-51
2022/09/06 07:36:18;;;;;;;18.52;4.22;;;16.60;99.90;;;;;;5024053;28;20212;-53
2022/09/06 07:38:48;;;;;;;20.77;4.40;;;16.60;99.90;;;;;;5022090;28;20170;-53
2022/09/06 07:41:14;;;;;;;17.95;4.25;;;16.70;99.90;;;;;;5024130;28;20186;-52
2022/09/06 07:43:40;;;;;;;16.15;4.93;;;16.90;99.90;;;;;;5022540;28;20506;-51
2022/09/06 07:46:10;;;;;;;20.27;4.03;;;16.90;99.90;;;;;;5022948;28;20165;-52
2022/09/06 07:48:38;;;;;;;23.77;4.10;;;17.00;99.90;;;;;;5026341;28;20174;-52
2022/09/06 07:51:11;;;;;;;22.80;3.97;;;17.10;99.90;;;;;;5022957;28;20167;-52
2022/09/06 07:53:39;;;;;;;14.30;4.05;;;17.10;99.90;;;;;;5026102;28;20544;-52
2022/09/06 07:56:07;;;;;;;18.67;3.70;;;17.20;99.90;;;;;;5023605;28;20252;-53
2022/09/06 07:58:34;;;;;;;26.52;4.38;;;17.20;99.90;;;;;;5023742;28;20651;-53
2022/09/06 08:01:31;;;;;;;18.90;3.88;;;17.30;99.90;;;;;;5021677;28;20182;-53
2022/09/06 08:04:08;;;;;;;18.60;3.88;;;17.50;99.90;;;;;;5027510;28;20641;-53
2022/09/06 08:06:37;;;;;;;21.67;3.88;;;17.60;99.90;;;;;;5032890;28;20659;-53
2022/09/06 08:09:06;;;;;;;19.40;3.63;;;17.50;99.90;;;;;;5033040;28;20575;-53
2022/09/06 08:11:33;;;;;;;15.98;3.33;;;17.60;99.90;;;;;;5031681;28;20174;-53
2022/09/06 08:14:00;;;;;;;16.65;3.50;;;17.70;99.90;;;;;;5032635;28;20224;-54
2022/09/06 08:16:27;;;;;;;22.90;3.55;;;17.70;99.90;;;;;;5032903;28;20178;-52
2022/09/06 08:18:56;;;;;;;21.13;3.08;;;17.80;99.90;;;;;;5032981;28;20648;-53
2022/09/06 08:21:25;;;;;;;14.07;2.75;;;17.90;99.90;;;;;;5032837;28;20223;-53
2022/09/06 08:23:56;;;;;;;23.50;3.00;;;18.10;99.90;;;;;;5030585;28;20170;-53
2022/09/06 08:26:23;;;;;;;23.63;3.30;;;18.10;99.90;;;;;;5032759;28;20170;-53
2022/09/06 08:28:56;;;;;;;20.60;3.70;;;18.00;99.90;;;;;;5032748;28;20176;-54
2022/09/06 08:31:22;;;;;;;20.73;3.00;;;18.10;99.90;;;;;;5032579;28;20181;-57
2022/09/06 08:33:48;;;;;;;27.10;3.60;;;18.50;99.90;;;;;;5032128;28;20207;-60
2022/09/06 08:36:14;;;;;;;18.70;2.88;;;19.00;99.90;;;;;;5029669;28;20214;-54
2022/09/06 08:38:40;;;;;;;16.48;2.45;;;19.10;99.90;;;;;;5032659;28;20232;-53
2022/09/06 08:41:24;;;;;;;20.30;3.03;;;19.60;99.90;;;;;;5031911;28;20225;-54
2022/09/06 08:43:55;;;;;;;11.52;2.17;;;19.20;99.90;;;;;;5032140;28;20327;-54
2022/09/06 08:46:32;;;;;;;22.83;3.15;;;19.10;99.90;;;;;;5031896;28;20174;-54
2022/09/06 08:48:58;;;;;;;19.00;2.67;;;19.40;99.90;;;;;;5032325;28;20162;-54
2022/09/06 08:51:49;;;;;;;18.08;2.92;;;21.00;99.90;;;;;;5030861;28;20734;-54
2022/09/06 08:54:27;;;;;;;20.45;3.17;;;21.10;99.90;;;;;;5018326;28;20170;-54
2022/09/06 08:56:53;;;;;;;19.88;3.00;;;20.90;99.90;;;;;;5032273;28;20701;-55
2022/09/06 08:59:19;;;;;;;19.20;2.88;;;20.50;99.90;;;;;;5031863;28;20268;-55
2022/09/06 09:01:54;;;;;;;17.38;3.00;;;20.70;99.90;;;;;;5031762;28;20178;-54
2022/09/06 09:04:22;;;;;;;17.90;2.92;;;20.00;99.90;;;;;;5032016;28;20169;-54
2022/09/06 09:06:54;;;;;;;18.65;2.67;;;19.50;99.90;;;;;;5030970;28;20169;-54
2022/09/06 09:09:20;;;;;;;18.30;2.65;;;19.40;99.90;;;;;;5021007;28;20698;-54
2022/09/06 09:11:49;;;;;;;23.35;3.45;;;19.70;99.90;;;;;;5030038;28;20255;-53
2022/09/06 09:14:21;;;;;;;15.02;2.20;;;19.90;99.90;;;;;;5028132;28;20166;-54
2022/09/06 09:16:55;;;;;;;23.63;2.63;;;20.10;99.90;;;;;;5016569;28;20182;-54
2022/09/06 09:19:20;;;;;;;17.92;2.22;;;20.10;99.90;;;;;;5022476;28;20227;-54
2022/09/06 09:21:47;;;;;;;16.95;2.47;;;20.10;99.90;;;;;;5026024;28;20573;-54
2022/09/06 09:24:14;;;;;;;14.77;2.53;;;19.90;99.90;;;;;;5023786;28;20201;-54
2022/09/06 09:26:52;;;;;;;11.30;2.40;;;19.30;99.90;;;;;;5024246;28;20174;-54
2022/09/06 09:29:18;;;;;;;22.65;3.08;;;19.10;99.90;;;;;;5019760;28;20182;-54
2022/09/06 09:31:53;;;;;;;17.98;2.65;;;19.00;99.90;;;;;;5027694;28;20634;-54
2022/09/06 09:34:34;;;;;;;18.92;2.58;;;19.00;99.90;;;;;;5014235;28;20552;-54
2022/09/06 09:37:22;;;;;;;26.95;2.95;;;18.70;99.90;;;;;;5014649;28;20189;-54
2022/09/06 09:39:52;;;;;;;19.17;3.40;;;18.50;99.90;;;;;;5021315;28;20308;-55
2022/09/06 09:42:31;;;;;;;18.88;2.70;;;18.30;99.90;;;;;;5031472;28;20174;-55
2022/09/06 09:44:58;;;;;;;15.70;2.95;;;18.00;99.90;;;;;;5031297;28;20178;-54
2022/09/06 09:47:24;;;;;;;16.98;2.90;;;17.50;99.90;;;;;;5023454;28;20177;-54
2022/09/06 09:49:49;;;;;;;15.55;2.30;;;17.50;99.90;;;;;;5024273;28;20261;-55
2022/09/06 09:52:26;;;;;;;14.88;3.03;;;17.70;99.90;;;;;;5027656;28;20174;-54
2022/09/06 09:54:55;;;;;;;16.33;2.25;;;17.80;99.90;;;;;;5031333;28;20244;-55
2022/09/06 09:57:21;;;;;;;14.45;2.85;;;18.10;99.90;;;;;;5026151;28;20169;-54
2022/09/06 09:59:53;;;;;;;14.73;2.70;;;18.20;99.90;;;;;;5011770;28;20213;-54
2022/09/06 10:02:37;;;;;;;15.90;2.20;;;18.20;99.90;;;;;;5009714;28;20177;-54
2022/09/06 10:05:23;;;;;;;17.38;2.90;;;19.00;99.90;;;;;;5026295;28;20403;-55
2022/09/06 10:07:54;;;;;;;15.10;2.33;;;20.10;99.90;;;;;;5029466;28;20213;-54
2022/09/06 10:10:30;;;;;;;15.73;2.92;;;20.90;99.90;;;;;;5030840;28;20683;-55
2022/09/06 10:13:11;;;;;;;13.32;2.90;;;21.80;99.90;;;;;;5030514;28;20182;-55
2022/09/06 10:15:38;;;;;;;10.30;2.17;;;22.50;99.90;;;;;;5031084;28;20225;-55
2022/09/06 10:18:04;;;;;;;19.00;2.65;;;22.00;99.90;;;;;;5030287;28;20185;-54
2022/09/06 10:20:49;;;;;;;11.40;2.50;;;21.40;99.90;;;;;;5030062;28;20174;-57
2022/09/06 10:23:30;;;;;;;15.82;2.35;;;21.50;99.90;;;;;;5027346;28;20172;-57
2022/09/06 10:26:07;;;;;;;9.85;2.45;;;21.30;99.90;;;;;;5026962;28;20174;-56
2022/09/06 10:28:42;;;;;;;12.30;2.55;;;20.70;99.90;;;;;;5028915;28;20166;-56
2022/09/06 10:31:35;;;;;;;16.08;2.50;;;20.10;99.90;;;;;;5029798;28;20196;-57
2022/09/06 10:34:25;;;;;;;14.82;2.60;;;21.10;99.90;;;;;;5023153;28;20252;-56
2022/09/06 10:37:04;;;;;;;12.40;2.00;;;21.70;99.90;;;;;;5028768;28;20192;-56
2022/09/06 10:39:54;;;;;;;8.45;2.38;;;21.20;99.90;;;;;;5024859;28;20221;-57
2022/09/06 10:42:48;;;;;;;10.93;2.35;;;22.20;99.90;;;;;;5023852;28;20636;-56
2022/09/06 10:45:20;;;;;;;15.32;2.42;;;23.20;99.90;;;;;;5015989;28;20213;-57
2022/09/06 10:48:24;;;;;;;9.05;2.42;;;24.30;99.90;;;;;;5032460;28;20261;-57
2022/09/06 10:51:30;;;;;;;9.63;2.17;;;25.50;99.90;;;;;;5021056;28;20189;-57
2022/09/06 10:54:05;;;;;;;13.65;2.55;;;24.50;99.90;;;;;;5034713;28;20185;-57
2022/09/06 10:56:40;;;;;;;12.02;2.58;;;24.20;99.90;;;;;;5032427;28;20205;-57
2022/09/06 10:59:23;;;;;;;12.05;2.45;;;25.50;99.90;;;;;;5028650;28;20169;-58
2022/09/06 11:02:26;;;;;;;8.13;2.30;;;25.20;99.90;;;;;;5014880;28;20248;-58
2022/09/06 11:04:52;;;;;;;12.73;2.83;;;26.50;99.90;;;;;;5029602;28;20189;-57
2022/09/06 11:07:30;;;;;;;8.15;1.83;;;25.50;99.90;;;;;;5033119;28;20174;-58
2022/09/06 11:10:06;;;;;;;11.98;2.30;;;24.60;99.90;;;;;;5034224;28;20281;-57
2022/09/06 11:12:40;;;;;;;10.80;2.25;;;25.60;99.90;;;;;;5034156;28;20225;-58
2022/09/06 11:15:07;;;;;;;14.93;2.58;;;25.20;99.90;;;;;;5033943;28;20205;-57
2022/09/06 11:17:51;;;;;;;9.55;2.40;;;24.90;99.90;;;;;;5034068;28;20168;-58
2022/09/06 11:20:23;;;;;;;10.15;2.38;;;24.00;99.90;;;;;;5034006;28;20212;-57
2022/09/06 11:23:16;;;;;;;10.88;2.20;;;23.00;99.90;;;;;;5033945;28;20577;-57
2022/09/06 11:26:07;;;;;;;13.05;2.20;;;22.60;99.90;;;;;;5016076;28;20196;-57
2022/09/06 11:28:46;;;;;;;15.30;2.42;;;21.90;99.90;;;;;;5028111;28;20186;-57
2022/09/06 11:31:21;;;;;;;13.68;2.45;;;21.70;99.90;;;;;;5033740;28;20182;-56
2022/09/06 11:33:48;;;;;;;12.32;2.50;;;21.60;99.90;;;;;;5019810;28;20185;-57
2022/09/06 11:36:55;;;;;;;9.63;2.05;;;21.40;99.90;;;;;;5033688;28;20220;-57
2022/09/06 11:39:33;;;;;;;12.52;2.45;;;21.80;99.90;;;;;;5033100;28;20217;-57
2022/09/06 11:42:00;;;;;;;17.15;2.45;;;23.10;99.90;;;;;;5033571;28;20200;-58
2022/09/06 11:44:56;;;;;;;9.65;2.20;;;23.60;99.90;;;;;;5033528;28;20249;-57
2022/09/06 11:47:41;;;;;;;9.60;1.65;;;23.60;99.90;;;;;;5033741;28;20265;-58
2022/09/06 11:50:23;;;;;;;12.68;2.85;;;24.30;99.90;;;;;;5033431;28;20195;-57
2022/09/06 11:52:56;;;;;;;8.45;2.30;;;24.70;99.90;;;;;;5033434;28;20178;-57
2022/09/06 11:55:38;;;;;;;14.77;2.03;;;26.40;99.90;;;;;;5033177;28;20198;-60
2022/09/06 11:58:15;;;;;;;11.35;2.20;;;26.20;99.90;;;;;;5033074;28;20197;-58
2022/09/06 12:00:41;;;;;;;9.27;2.25;;;25.30;99.90;;;;;;5033270;28;20231;-57
2022/09/06 12:03:09;;;;;;;18.38;2.90;;;24.70;99.90;;;;;;5033106;28;20593;-57
2022/09/06 12:06:13;;;;;;;11.48;1.80;;;23.70;99.90;;;;;;5032499;28;20180;-57
2022/09/06 12:08:39;;;;;;;9.85;2.05;;;23.20;99.90;;;;;;5032825;28;20186;-57
2022/09/06 12:11:28;;;;;;;15.00;2.40;;;22.80;99.90;;;;;;5032163;28;20174;-57
2022/09/06 12:14:01;;;;;;;9.98;1.98;;;22.70;99.90;;;;;;5032873;28;20166;-57
2022/09/06 12:16:59;;;;;;;17.52;2.35;;;22.50;99.90;;;;;;5030379;28;20275;-57
2022/09/06 12:19:46;;;;;;;11.52;1.60;;;22.80;99.90;;;;;;5032977;28;20247;-58
2022/09/06 12:22:31;;;;;;;16.80;2.25;;;22.80;99.90;;;;;;5032773;28;20177;-59
2022/09/06 12:25:15;;;;;;;12.52;2.08;;;23.50;99.90;;;;;;5032827;28;20197;-57
2022/09/06 12:28:01;;;;;;;10.02;2.00;;;25.10;99.90;;;;;;5032472;28;20174;-57
2022/09/06 12:30:40;;;;;;;10.02;2.15;;;25.70;99.90;;;;;;5032220;28;20185;-57
2022/09/06 12:33:26;;;;;;;10.27;1.95;;;26.10;99.90;;;;;;5032791;28;20284;-57
2022/09/06 12:35:53;;;;;;;10.68;2.35;;;25.00;99.90;;;;;;5024368;28;20217;-57
2022/09/06 12:38:23;;;;;;;19.13;2.13;;;23.90;99.90;;;;;;5032365;28;20232;-56
2022/09/06 12:40:53;;;;;;;11.13;2.35;;;23.50;99.90;;;;;;5032435;28;20229;-57
2022/09/06 12:43:19;;;;;;;10.60;1.90;;;22.60;99.90;;;;;;5032738;28;20178;-57
2022/09/06 12:45:49;;;;;;;11.07;1.92;;;22.60;99.90;;;;;;5031581;28;20178;-57
2022/09/06 12:48:29;;;;;;;7.30;1.52;;;22.80;99.90;;;;;;5032180;28;20178;-58
2022/09/06 12:51:15;;;;;;;13.23;1.80;;;23.50;99.90;;;;;;5031825;28;20197;-53
2022/09/06 12:53:59;;;;;;;8.73;1.60;;;24.70;99.90;;;;;;5032182;28;20170;-54
2022/09/06 12:56:28;;;;;;;8.50;1.90;;;25.20;99.90;;;;;;5031195;28;20205;-58
2022/09/06 12:59:30;;;;;;;7.68;1.92;;;26.30;99.90;;;;;;5031868;28;20174;-58